Time;durP1;ratioP1;P1;durP2;ratioP2;P2;SDS_P1;SDS_P2;PMS_P1;PMS_P2;Temp;Humidity;BMP_temperature;BMP_pressure;BME280_temperature;BME280_humidity;BME280_pressure;Samples;Min_cycle;Max_cycle;Signal;HPM_P1;HPM_P2
2020/12/17 00:02:21;;;;;;;5.70;2.40;;;;;;;;;;5052787;28;20009;-82
2020/12/17 00:04:46;;;;;;;6.28;2.33;;;;;;;;;;5054243;28;20124;-82
2020/12/17 00:07:11;;;;;;;8.70;3.47;;;;;;;;;;5054064;28;20025;-82
2020/12/17 00:09:36;;;;;;;6.00;2.58;;;;;;;;;;5054163;28;20479;-82
2020/12/17 00:12:02;;;;;;;7.10;2.65;;;;;;;;;;5054038;28;20071;-82
2020/12/17 00:14:27;;;;;;;3.38;2.50;;;;;;;;;;5053805;28;20013;-82
2020/12/17 00:16:52;;;;;;;6.97;2.53;;;;;;;;;;5053128;28;20029;-82
2020/12/17 00:19:17;;;;;;;4.90;3.05;;;;;;;;;;5053902;28;20362;-82
2020/12/17 00:21:43;;;;;;;8.82;3.58;;;;;;;;;;5052584;28;20021;-81
2020/12/17 00:24:08;;;;;;;8.30;3.40;;;;;;;;;;5053712;28;20211;-82
2020/12/17 00:26:33;;;;;;;6.13;2.83;;;;;;;;;;5052539;28;20028;-81
2020/12/17 00:28:58;;;;;;;9.60;3.58;;;;;;;;;;5053261;28;20033;-81
2020/12/17 00:31:23;;;;;;;7.72;3.15;;;;;;;;;;5053739;28;20028;-81
2020/12/17 00:33:49;;;;;;;6.88;3.60;;;;;;;;;;5052093;28;20021;-81
2020/12/17 00:36:17;;;;;;;7.18;3.40;;;;;;;;;;5053636;28;20047;-81
2020/12/17 00:38:43;;;;;;;6.22;3.45;;;;;;;;;;5052222;28;20017;-81
2020/12/17 00:41:10;;;;;;;10.48;3.42;;;;;;;;;;5052176;28;20073;-81
2020/12/17 00:43:35;;;;;;;6.30;3.42;;;;;;;;;;5052509;28;20070;-81
2020/12/17 00:46:01;;;;;;;7.55;4.00;;;;;;;;;;5052772;28;20067;-81
2020/12/17 00:48:26;;;;;;;7.97;3.70;;;;;;;;;;5052505;28;20009;-81
2020/12/17 00:50:51;;;;;;;5.40;3.28;;;;;;;;;;5052351;28;20059;-81
2020/12/17 00:53:16;;;;;;;8.18;3.38;;;;;;;;;;5051117;28;20500;-81
2020/12/17 00:55:41;;;;;;;6.78;3.60;;;;;;;;;;5052677;28;20032;-81
2020/12/17 00:58:07;;;;;;;6.57;3.42;;;;;;;;;;5053045;28;20359;-82
2020/12/17 01:00:32;;;;;;;8.70;4.05;;;;;;;;;;5052928;28;20406;-81
2020/12/17 01:02:57;;;;;;;5.40;3.38;;;;;;;;;;5052402;28;20021;-81
2020/12/17 01:05:22;;;;;;;6.90;3.05;;;;;;;;;;5052809;28;20039;-81
2020/12/17 01:07:47;;;;;;;6.82;3.28;;;;;;;;;;5051034;28;20523;-81
2020/12/17 01:10:13;;;;;;;13.20;4.95;;;;;;;;;;5051487;28;20025;-81
2020/12/17 01:12:41;;;;;;;4.57;2.75;;;;;;;;;;5052925;28;20020;-81
2020/12/17 01:15:06;;;;;;;5.25;3.08;;;;;;;;;;5051085;28;20070;-82
2020/12/17 01:17:31;;;;;;;9.25;3.08;;;;;;;;;;5052847;28;20021;-81
2020/12/17 01:19:56;;;;;;;6.95;3.22;;;;;;;;;;5051390;28;20502;-81
2020/12/17 01:22:23;;;;;;;5.50;2.58;;;;;;;;;;5052137;28;20379;-81
2020/12/17 01:24:48;;;;;;;6.53;3.05;;;;;;;;;;5052713;28;20070;-81
2020/12/17 01:27:13;;;;;;;5.20;2.97;;;;;;;;;;5052292;28;20460;-81
2020/12/17 01:29:38;;;;;;;5.45;3.13;;;;;;;;;;5052668;28;20009;-81
2020/12/17 01:32:04;;;;;;;8.88;3.03;;;;;;;;;;5052301;28;20040;-82
2020/12/17 01:34:29;;;;;;;4.57;2.95;;;;;;;;;;5052309;28;20470;-81
2020/12/17 01:36:55;;;;;;;8.27;3.42;;;;;;;;;;5051136;28;20025;-81
2020/12/17 01:39:20;;;;;;;4.28;2.38;;;;;;;;;;5050957;28;20021;-81
2020/12/17 01:41:46;;;;;;;7.50;3.22;;;;;;;;;;5052577;28;20016;-81
2020/12/17 01:44:11;;;;;;;5.97;3.45;;;;;;;;;;5050803;28;20032;-81
2020/12/17 01:46:36;;;;;;;7.53;3.20;;;;;;;;;;5050913;28;20037;-82
2020/12/17 01:49:02;;;;;;;7.20;3.53;;;;;;;;;;5051566;28;20490;-81
2020/12/17 01:51:27;;;;;;;7.45;3.40;;;;;;;;;;5051658;28;20017;-81
2020/12/17 01:53:54;;;;;;;12.07;4.10;;;;;;;;;;5050257;28;20460;-81
2020/12/17 01:56:23;;;;;;;7.35;3.70;;;;;;;;;;5051591;28;20021;-81
2020/12/17 01:58:52;;;;;;;8.40;4.00;;;;;;;;;;5051796;28;20103;-82
2020/12/17 02:01:18;;;;;;;8.70;4.00;;;;;;;;;;5051552;28;20028;-81
2020/12/17 02:03:43;;;;;;;6.45;3.40;;;;;;;;;;5050272;28;20452;-81
2020/12/17 02:06:09;;;;;;;10.02;3.55;;;;;;;;;;5051717;28;20017;-81
2020/12/17 02:08:38;;;;;;;7.32;3.30;;;;;;;;;;5051746;28;20099;-81
2020/12/17 02:11:04;;;;;;;7.22;4.07;;;;;;;;;;5051452;28;20452;-81
2020/12/17 02:13:33;;;;;;;5.20;3.53;;;;;;;;;;5051671;28;20064;-81
2020/12/17 02:15:58;;;;;;;7.82;3.78;;;;;;;;;;5051970;28;20036;-81
2020/12/17 02:18:24;;;;;;;8.30;3.75;;;;;;;;;;5052414;28;20017;-81
2020/12/17 02:20:49;;;;;;;8.20;4.15;;;;;;;;;;5056104;28;20020;-81
2020/12/17 02:23:14;;;;;;;11.52;4.57;;;;;;;;;;5055968;28;20084;-82
2020/12/17 02:25:39;;;;;;;8.70;4.18;;;;;;;;;;5056068;28;20082;-82
2020/12/17 02:28:04;;;;;;;9.23;4.38;;;;;;;;;;5054415;28;20025;-81
2020/12/17 02:30:30;;;;;;;11.27;4.80;;;;;;;;;;5055975;28;20025;-82
2020/12/17 02:32:56;;;;;;;8.43;4.45;;;;;;;;;;5055851;28;20020;-82
2020/12/17 02:35:21;;;;;;;10.55;4.97;;;;;;;;;;5054394;28;20110;-82
2020/12/17 02:37:46;;;;;;;12.02;5.32;;;;;;;;;;5055871;28;20021;-82
2020/12/17 02:40:11;;;;;;;7.35;4.25;;;;;;;;;;5055770;28;20103;-82
2020/12/17 02:42:36;;;;;;;8.73;4.40;;;;;;;;;;5054459;28;20514;-83
2020/12/17 02:45:02;;;;;;;9.68;5.05;;;;;;;;;;5054826;28;20032;-83
2020/12/17 02:47:27;;;;;;;8.85;4.53;;;;;;;;;;5055906;28;20025;-83
2020/12/17 02:49:53;;;;;;;7.82;4.45;;;;;;;;;;5055441;28;20064;-82
2020/12/17 02:52:18;;;;;;;11.05;4.00;;;;;;;;;;5054252;28;20090;-82
2020/12/17 02:54:43;;;;;;;8.35;5.10;;;;;;;;;;5045363;28;20033;-82
2020/12/17 02:57:08;;;;;;;7.10;4.20;;;;;;;;;;5052185;28;20013;-83
2020/12/17 02:59:33;;;;;;;8.55;4.13;;;;;;;;;;5055998;28;20017;-82
2020/12/17 03:01:58;;;;;;;10.35;4.78;;;;;;;;;;5053824;28;20040;-82
2020/12/17 03:04:24;;;;;;;11.32;4.80;;;;;;;;;;5055392;28;20025;-82
2020/12/17 03:06:49;;;;;;;11.77;4.68;;;;;;;;;;5054252;28;20123;-82
2020/12/17 03:09:14;;;;;;;8.88;5.07;;;;;;;;;;5054456;28;20051;-82
2020/12/17 03:11:39;;;;;;;10.77;4.75;;;;;;;;;;5053908;28;20264;-83
2020/12/17 03:14:04;;;;;;;8.63;4.80;;;;;;;;;;5054801;28;20070;-83
2020/12/17 03:16:30;;;;;;;10.30;4.70;;;;;;;;;;5055100;28;20024;-83
2020/12/17 03:18:56;;;;;;;11.52;4.65;;;;;;;;;;5053605;28;20055;-83
2020/12/17 03:21:21;;;;;;;9.30;5.07;;;;;;;;;;5055029;28;20025;-83
2020/12/17 03:23:46;;;;;;;10.20;4.85;;;;;;;;;;5051510;28;20037;-83
2020/12/17 03:26:12;;;;;;;8.75;4.30;;;;;;;;;;5054910;28;20032;-83
2020/12/17 03:28:37;;;;;;;14.88;4.57;;;;;;;;;;5053608;28;20017;-83
2020/12/17 03:31:02;;;;;;;8.57;5.22;;;;;;;;;;5053432;28;20024;-79
2020/12/17 03:33:27;;;;;;;8.57;4.85;;;;;;;;;;5053961;28;20092;-79
2020/12/17 03:35:52;;;;;;;7.75;3.92;;;;;;;;;;5053817;28;20036;-79
2020/12/17 03:38:18;;;;;;;12.38;4.30;;;;;;;;;;5053930;28;20059;-79
2020/12/17 03:40:43;;;;;;;6.68;4.60;;;;;;;;;;5053979;28;20104;-80
2020/12/17 03:43:09;;;;;;;11.15;4.70;;;;;;;;;;5053717;28;20024;-80
2020/12/17 03:45:34;;;;;;;8.23;4.72;;;;;;;;;;5053742;28;20361;-81
2020/12/17 03:47:59;;;;;;;7.07;4.60;;;;;;;;;;5052722;28;20640;-81
2020/12/17 03:50:24;;;;;;;7.57;4.07;;;;;;;;;;5053697;28;20045;-81
2020/12/17 03:52:49;;;;;;;7.97;4.95;;;;;;;;;;5053290;28;20497;-81
2020/12/17 03:55:15;;;;;;;15.30;4.88;;;;;;;;;;5054005;28;20027;-81
2020/12/17 03:57:40;;;;;;;10.15;5.43;;;;;;;;;;5052561;28;20055;-81
2020/12/17 04:00:05;;;;;;;13.25;5.53;;;;;;;;;;5052178;28;20017;-81
2020/12/17 04:02:30;;;;;;;11.38;5.47;;;;;;;;;;5053543;28;20100;-80
2020/12/17 04:04:55;;;;;;;14.07;5.05;;;;;;;;;;5053520;28;20024;-81
2020/12/17 04:07:21;;;;;;;16.52;6.38;;;;;;;;;;5053390;28;20013;-81
2020/12/17 04:09:46;;;;;;;11.00;5.28;;;;;;;;;;5052112;28;20025;-81
2020/12/17 04:12:11;;;;;;;9.57;5.60;;;;;;;;;;5053686;28;20609;-81
2020/12/17 04:14:38;;;;;;;13.60;5.43;;;;;;;;;;5053113;28;20025;-80
2020/12/17 04:17:03;;;;;;;10.95;5.20;;;;;;;;;;5052016;28;20025;-81
2020/12/17 04:19:28;;;;;;;12.25;5.55;;;;;;;;;;5053110;28;20005;-81
2020/12/17 04:21:53;;;;;;;14.32;5.88;;;;;;;;;;5051641;28;20037;-81
2020/12/17 04:24:19;;;;;;;10.90;5.45;;;;;;;;;;5053020;28;20016;-81
2020/12/17 04:26:50;;;;;;;11.00;5.82;;;;;;;;;;5053456;28;20379;-81
2020/12/17 04:29:16;;;;;;;12.93;6.82;;;;;;;;;;5053202;28;20091;-81
2020/12/17 04:31:42;;;;;;;13.80;5.87;;;;;;;;;;5053009;28;20017;-80
2020/12/17 04:34:07;;;;;;;13.40;6.10;;;;;;;;;;5050445;28;20025;-80
2020/12/17 04:36:32;;;;;;;9.98;5.53;;;;;;;;;;5050806;28;20009;-81
2020/12/17 04:38:57;;;;;;;9.80;5.13;;;;;;;;;;5049068;28;20021;-81
2020/12/17 04:41:24;;;;;;;10.30;5.63;;;;;;;;;;5049609;28;20062;-81
2020/12/17 04:43:50;;;;;;;9.32;5.25;;;;;;;;;;5049515;28;20467;-81
2020/12/17 04:46:17;;;;;;;10.77;4.82;;;;;;;;;;5050216;28;20021;-81
2020/12/17 04:48:44;;;;;;;9.90;5.35;;;;;;;;;;5050782;28;20044;-81
2020/12/17 04:51:09;;;;;;;11.20;5.32;;;;;;;;;;5050645;28;20074;-81
2020/12/17 04:53:36;;;;;;;7.90;4.93;;;;;;;;;;5049321;28;20017;-80
2020/12/17 04:56:02;;;;;;;11.18;5.28;;;;;;;;;;5048936;28;20078;-80
2020/12/17 04:58:27;;;;;;;8.00;5.38;;;;;;;;;;5049848;28;20017;-81
2020/12/17 05:00:55;;;;;;;7.82;4.53;;;;;;;;;;5050655;28;20032;-81
2020/12/17 05:03:21;;;;;;;7.85;4.63;;;;;;;;;;5052247;28;20032;-81
2020/12/17 05:05:51;;;;;;;6.50;4.25;;;;;;;;;;5051283;28;20119;-81
2020/12/17 05:08:16;;;;;;;8.38;4.72;;;;;;;;;;5052987;28;20449;-81
2020/12/17 05:10:41;;;;;;;6.75;4.40;;;;;;;;;;5050671;28;20119;-81
2020/12/17 05:13:06;;;;;;;6.90;4.43;;;;;;;;;;5051029;28;20029;-81
2020/12/17 05:15:32;;;;;;;8.18;4.70;;;;;;;;;;5050258;28;20064;-81
2020/12/17 05:17:57;;;;;;;7.00;4.40;;;;;;;;;;5052152;28;20326;-81
2020/12/17 05:20:22;;;;;;;6.97;4.57;;;;;;;;;;5052243;28;20075;-81
2020/12/17 05:22:48;;;;;;;8.63;4.60;;;;;;;;;;5051764;28;20459;-81
2020/12/17 05:25:14;;;;;;;9.02;4.70;;;;;;;;;;5052170;28;20025;-81
2020/12/17 05:27:43;;;;;;;8.35;4.53;;;;;;;;;;5051922;28;20075;-81
2020/12/17 05:30:08;;;;;;;11.30;5.03;;;;;;;;;;5051667;28;20120;-80
2020/12/17 05:32:33;;;;;;;14.07;4.63;;;;;;;;;;5045193;28;20094;-81
2020/12/17 05:35:00;;;;;;;6.63;3.88;;;;;;;;;;5051633;28;20086;-80
2020/12/17 05:37:26;;;;;;;7.90;4.13;;;;;;;;;;5050726;28;20448;-81
2020/12/17 05:39:51;;;;;;;6.82;4.07;;;;;;;;;;5050565;28;20013;-80
2020/12/17 05:42:17;;;;;;;8.50;4.50;;;;;;;;;;5050465;28;20047;-80
2020/12/17 05:44:42;;;;;;;6.15;4.10;;;;;;;;;;5050448;28;20467;-80
2020/12/17 05:47:13;;;;;;;11.18;3.63;;;;;;;;;;5051990;28;20128;-80
2020/12/17 05:49:39;;;;;;;6.68;3.58;;;;;;;;;;5050271;28;20025;-80
2020/12/17 05:52:20;;;;;;;8.95;3.97;;;;;;;;;;5050726;28;20024;-81
2020/12/17 05:54:54;;;;;;;9.97;4.27;;;;;;;;;;5051474;28;20110;-81
2020/12/17 05:57:20;;;;;;;6.70;4.20;;;;;;;;;;5051809;28;20017;-81
2020/12/17 05:59:56;;;;;;;11.37;4.13;;;;;;;;;;5051510;28;20031;-80
2020/12/17 06:02:21;;;;;;;8.77;4.28;;;;;;;;;;5050992;28;20025;-81
2020/12/17 06:05:00;;;;;;;9.50;4.10;;;;;;;;;;5050437;28;20498;-80
2020/12/17 06:07:29;;;;;;;6.82;3.78;;;;;;;;;;5050063;28;20455;-80
2020/12/17 06:10:02;;;;;;;7.72;4.80;;;;;;;;;;5051953;28;20110;-81
2020/12/17 06:12:27;;;;;;;;;;;;;;;;;;5051605;28;20013;-80
2020/12/17 06:14:52;;;;;;;7.37;3.77;;;;;;;;;;5051720;28;19974;-81
2020/12/17 06:17:21;;;;;;;10.55;4.13;;;;;;;;;;5051199;28;20254;-81
2020/12/17 06:19:46;;;;;;;7.73;3.93;;;;;;;;;;5050310;28;20092;-81
2020/12/17 06:22:12;;;;;;;9.35;4.43;;;;;;;;;;5051148;28;20017;-81
2020/12/17 06:24:38;;;;;;;6.53;3.90;;;;;;;;;;5037717;28;20021;-82
2020/12/17 06:27:06;;;;;;;6.90;4.03;;;;;;;;;;5051572;28;20048;-80
2020/12/17 06:29:36;;;;;;;7.32;3.95;;;;;;;;;;5049941;28;20147;-80
2020/12/17 06:32:07;;;;;;;7.00;4.00;;;;;;;;;;5050326;28;20024;-81
2020/12/17 06:34:36;;;;;;;7.20;3.90;;;;;;;;;;5051100;28;20483;-81
2020/12/17 06:37:02;;;;;;;8.55;3.95;;;;;;;;;;5051570;28;20032;-80
2020/12/17 06:39:27;;;;;;;6.70;3.45;;;;;;;;;;5051146;28;20013;-81
2020/12/17 06:41:52;;;;;;;12.15;3.47;;;;;;;;;;5050485;28;20096;-80
2020/12/17 06:44:25;;;;;;;10.55;3.92;;;;;;;;;;5050026;28;20055;-81
2020/12/17 06:47:00;;;;;;;8.32;3.95;;;;;;;;;;5037356;28;20033;-80
2020/12/17 06:49:29;;;;;;;5.97;3.30;;;;;;;;;;5044562;28;20096;-80
2020/12/17 06:52:03;;;;;;;9.65;3.53;;;;;;;;;;5051148;28;20375;-80
2020/12/17 06:54:28;;;;;;;6.75;3.53;;;;;;;;;;5049730;28;20043;-80
2020/12/17 06:57:16;;;;;;;8.52;4.13;;;;;;;;;;5050178;28;20429;-81
2020/12/17 07:00:03;;;;;;;8.85;3.80;;;;;;;;;;5033427;28;20025;-81
2020/12/17 07:02:38;;;;;;;9.17;4.23;;;;;;;;;;5046106;28;20032;-81
2020/12/17 07:05:03;;;;;;;10.60;4.10;;;;;;;;;;5045376;28;20673;-80
2020/12/17 07:07:29;;;;;;;9.05;3.67;;;;;;;;;;5050669;28;20033;-82
2020/12/17 07:09:55;;;;;;;6.47;3.38;;;;;;;;;;5039504;28;20014;-80
2020/12/17 07:12:40;;;;;;;7.83;3.57;;;;;;;;;;5035581;28;20057;-80
2020/12/17 07:15:25;;;;;;;11.83;3.47;;;;;;;;;;5052547;28;20050;-83
2020/12/17 07:17:51;;;;;;;7.00;3.53;;;;;;;;;;5053164;28;20025;-83
2020/12/17 07:20:28;;;;;;;8.63;3.63;;;;;;;;;;5038722;28;20147;-82
2020/12/17 07:22:53;;;;;;;7.67;3.40;;;;;;;;;;5044189;28;20021;-82
2020/12/17 07:25:31;;;;;;;10.40;3.77;;;;;;;;;;5053023;28;20013;-82
2020/12/17 07:27:58;;;;;;;4.65;2.60;;;;;;;;;;5052551;28;20025;-82
2020/12/17 07:30:24;;;;;;;6.23;3.10;;;;;;;;;;5050228;28;20032;-82
2020/12/17 07:32:50;;;;;;;4.73;2.57;;;;;;;;;;5043318;28;20135;-83
2020/12/17 07:35:16;;;;;;;4.83;2.63;;;;;;;;;;5046848;28;20208;-82
2020/12/17 07:37:42;;;;;;;5.83;2.67;;;;;;;;;;5043290;28;20091;-82
2020/12/17 07:40:17;;;;;;;8.40;2.80;;;;;;;;;;5043523;28;20021;-83
2020/12/17 07:42:54;;;;;;;5.27;2.67;;;;;;;;;;5052481;28;20021;-83
2020/12/17 07:45:35;;;;;;;6.70;2.57;;;;;;;;;;5052954;28;20017;-83
2020/12/17 07:48:00;;;;;;;6.43;2.70;;;;;;;;;;5052816;28;20116;-83
2020/12/17 07:50:38;;;;;;;7.27;2.60;;;;;;;;;;5054396;28;20041;-83
2020/12/17 07:53:22;;;;;;;11.33;2.60;;;;;;;;;;5052716;28;20416;-82
2020/12/17 07:55:48;;;;;;;5.80;2.93;;;;;;;;;;5043780;28;20100;-82
2020/12/17 07:58:15;;;;;;;6.85;2.60;;;;;;;;;;5053484;28;20044;-82
2020/12/17 08:00:42;;;;;;;6.43;2.40;;;;;;;;;;5054029;28;20364;-82
2020/12/17 08:03:07;;;;;;;5.00;2.60;;;;;;;;;;5045835;28;20483;-79
2020/12/17 08:05:32;;;;;;;8.87;3.10;;;;;;;;;;5043791;28;20075;-79
2020/12/17 08:07:57;;;;;;;5.50;2.53;;;;;;;;;;5038115;28;20107;-79
2020/12/17 08:10:22;;;;;;;10.57;2.80;;;;;;;;;;5049094;28;20005;-79
2020/12/17 08:12:48;;;;;;;10.77;2.97;;;;;;;;;;5040059;28;20387;-79
2020/12/17 08:15:13;;;;;;;8.43;3.20;;;;;;;;;;5042966;28;20032;-79
2020/12/17 08:17:45;;;;;;;10.32;3.47;;;;;;;;;;5052503;28;20021;-79
2020/12/17 08:20:14;;;;;;;7.28;3.38;;;;;;;;;;5045143;28;20075;-79
2020/12/17 08:22:39;;;;;;;8.45;3.30;;;;;;;;;;5033504;28;20031;-79
2020/12/17 08:25:04;;;;;;;8.45;3.53;;;;;;;;;;5038771;28;21382;-78
2020/12/17 08:27:30;;;;;;;6.35;3.60;;;;;;;;;;5043851;28;20033;-78
2020/12/17 08:29:55;;;;;;;4.90;2.75;;;;;;;;;;5032570;28;20127;-79
2020/12/17 08:32:20;;;;;;;6.35;3.45;;;;;;;;;;5045229;28;20361;-79
2020/12/17 08:34:55;;;;;;;5.38;3.30;;;;;;;;;;5041996;28;20116;-79
2020/12/17 08:37:22;;;;;;;7.72;3.25;;;;;;;;;;5050485;28;20383;-78
2020/12/17 08:40:04;;;;;;;5.28;3.00;;;;;;;;;;5051803;28;20013;-78
2020/12/17 08:42:32;;;;;;;9.87;3.73;;;;;;;;;;5049367;28;20411;-78
2020/12/17 08:45:03;;;;;;;17.13;5.55;;;;;;;;;;5051864;28;20037;-79
2020/12/17 08:47:30;;;;;;;9.07;3.80;;;;;;;;;;5051469;28;20025;-79
2020/12/17 08:49:56;;;;;;;11.07;3.93;;;;;;;;;;5051714;28;20025;-79
2020/12/17 08:52:27;;;;;;;10.57;4.20;;;;;;;;;;5046388;28;20562;-79
2020/12/17 08:55:06;;;;;;;10.63;3.85;;;;;;;;;;5050614;28;20033;-79
2020/12/17 08:57:31;;;;;;;14.95;4.50;;;;;;;;;;5047548;28;20021;-79
2020/12/17 08:59:56;;;;;;;8.15;4.03;;;;;;;;;;5046392;28;20504;-79
2020/12/17 09:02:22;;;;;;;10.23;4.55;;;;;;;;;;5051703;28;20542;-79
2020/12/17 09:04:58;;;;;;;10.02;4.20;;;;;;;;;;5050981;28;20029;-82
2020/12/17 09:07:27;;;;;;;8.18;3.83;;;;;;;;;;5048696;28;20021;-82
2020/12/17 09:09:52;;;;;;;11.30;4.38;;;;;;;;;;5042570;28;20451;-82
2020/12/17 09:12:35;;;;;;;11.57;4.43;;;;;;;;;;5050936;28;20017;-82
2020/12/17 09:15:08;;;;;;;10.17;3.90;;;;;;;;;;5050606;28;20031;-82
2020/12/17 09:17:33;;;;;;;;;;;;;;;;;;5052888;28;20043;-82
2020/12/17 09:19:58;;;;;;;7.25;3.80;;;;;;;;;;5051162;28;19904;-82
2020/12/17 09:22:30;;;;;;;17.42;5.20;;;;;;;;;;5046367;28;20680;-81
2020/12/17 09:24:55;;;;;;;13.37;4.07;;;;;;;;;;5052117;28;20029;-81
2020/12/17 09:27:23;;;;;;;16.08;4.57;;;;;;;;;;5050274;28;20312;-81
2020/12/17 09:30:07;;;;;;;13.93;4.70;;;;;;;;;;5042956;28;20490;-82
2020/12/17 09:32:35;;;;;;;7.68;3.90;;;;;;;;;;5050283;28;20111;-82
2020/12/17 09:35:01;;;;;;;16.92;4.75;;;;;;;;;;5045490;28;20072;-82
2020/12/17 09:37:26;;;;;;;11.45;3.78;;;;;;;;;;5045045;28;20104;-82
2020/12/17 09:39:51;;;;;;;15.43;4.28;;;;;;;;;;5050465;28;20095;-82
2020/12/17 09:42:17;;;;;;;10.15;4.50;;;;;;;;;;5051578;28;20105;-81
2020/12/17 09:44:42;;;;;;;19.05;4.57;;;;;;;;;;5051566;28;20529;-81
2020/12/17 09:47:08;;;;;;;16.58;4.90;;;;;;;;;;5051572;28;20056;-81
2020/12/17 09:49:34;;;;;;;15.07;4.45;;;;;;;;;;5051934;28;20079;-81
2020/12/17 09:52:04;;;;;;;16.05;4.97;;;;;;;;;;5040778;28;20021;-80
2020/12/17 09:54:30;;;;;;;19.17;5.32;;;;;;;;;;5045133;28;20829;-80
2020/12/17 09:56:59;;;;;;;12.35;4.85;;;;;;;;;;5048122;28;20024;-80
2020/12/17 09:59:24;;;;;;;18.23;5.93;;;;;;;;;;5046626;28;20064;-79
2020/12/17 10:01:54;;;;;;;13.82;5.25;;;;;;;;;;5046997;28;20041;-80
2020/12/17 10:04:19;;;;;;;18.70;4.85;;;;;;;;;;5039058;28;20665;-82
2020/12/17 10:06:45;;;;;;;13.98;5.00;;;;;;;;;;5049417;28;20032;-82
2020/12/17 10:09:10;;;;;;;16.45;4.40;;;;;;;;;;5048046;28;20025;-80
2020/12/17 10:11:35;;;;;;;15.98;4.63;;;;;;;;;;5044459;28;20045;-80
2020/12/17 10:14:00;;;;;;;11.23;4.38;;;;;;;;;;5045431;28;20020;-80
2020/12/17 10:16:25;;;;;;;15.30;4.18;;;;;;;;;;5051609;28;20095;-80
2020/12/17 10:18:50;;;;;;;10.70;3.80;;;;;;;;;;5051489;28;20044;-81
2020/12/17 10:21:16;;;;;;;12.20;4.15;;;;;;;;;;5051368;28;20082;-81
2020/12/17 10:23:41;;;;;;;13.50;4.50;;;;;;;;;;5051352;28;20612;-81
2020/12/17 10:26:06;;;;;;;10.90;3.47;;;;;;;;;;5048959;28;20035;-81
2020/12/17 10:28:31;;;;;;;13.63;3.63;;;;;;;;;;5041941;28;20021;-80
2020/12/17 10:30:56;;;;;;;10.88;3.22;;;;;;;;;;5045430;28;20452;-80
2020/12/17 10:33:22;;;;;;;12.23;3.72;;;;;;;;;;5050826;28;20035;-81
2020/12/17 10:35:47;;;;;;;8.38;2.95;;;;;;;;;;5049955;28;20418;-82
2020/12/17 10:38:12;;;;;;;17.65;4.00;;;;;;;;;;5050024;28;20067;-80
2020/12/17 10:40:38;;;;;;;11.63;3.47;;;;;;;;;;5052150;28;20108;-81
2020/12/17 10:43:03;;;;;;;16.05;3.40;;;;;;;;;;5053291;28;20024;-81
2020/12/17 10:45:28;;;;;;;14.65;3.47;;;;;;;;;;5054605;28;20086;-81
2020/12/17 10:47:53;;;;;;;9.20;2.88;;;;;;;;;;5054283;28;20020;-80
2020/12/17 10:50:18;;;;;;;16.23;3.25;;;;;;;;;;5054874;28;20521;-81
2020/12/17 10:52:44;;;;;;;14.65;2.80;;;;;;;;;;5053604;28;20025;-80
2020/12/17 10:55:09;;;;;;;10.25;2.75;;;;;;;;;;5052901;28;20016;-81
2020/12/17 10:57:34;;;;;;;16.10;3.13;;;;;;;;;;5052967;28;20024;-80
2020/12/17 10:59:59;;;;;;;12.05;3.20;;;;;;;;;;5053133;28;20053;-81
2020/12/17 11:02:25;;;;;;;15.95;3.78;;;;;;;;;;5053441;28;20084;-81
2020/12/17 11:04:50;;;;;;;11.85;3.05;;;;;;;;;;5054755;28;20111;-82
2020/12/17 11:07:15;;;;;;;11.93;3.75;;;;;;;;;;5052721;28;20435;-81
2020/12/17 11:09:41;;;;;;;2.72;1.40;;;;;;;;;;5044485;28;20048;-80
2020/12/17 11:12:08;;;;;;;7.30;2.58;;;;;;;;;;5053949;28;20025;-80
2020/12/17 11:14:33;;;;;;;11.50;2.50;;;;;;;;;;5053315;28;20029;-80
2020/12/17 11:17:03;;;;;;;11.43;3.03;;;;;;;;;;5053151;28;20075;-81
2020/12/17 11:19:28;;;;;;;11.52;3.03;;;;;;;;;;5051698;28;20079;-80
2020/12/17 11:21:57;;;;;;;14.05;3.50;;;;;;;;;;5053586;28;20397;-81
2020/12/17 11:24:23;;;;;;;6.43;1.35;;;;;;;;;;5050565;28;20405;-80
2020/12/17 11:26:48;;;;;;;12.50;2.63;;;;;;;;;;5047563;28;20017;-80
2020/12/17 11:29:13;;;;;;;13.73;2.85;;;;;;;;;;5052127;28;20444;-81
2020/12/17 11:31:39;;;;;;;18.00;3.97;;;;;;;;;;5053734;28;20021;-82
2020/12/17 11:34:04;;;;;;;9.85;2.80;;;;;;;;;;5052090;28;20025;-80
2020/12/17 11:36:29;;;;;;;15.38;3.28;;;;;;;;;;5048556;28;20025;-80
2020/12/17 11:38:55;;;;;;;9.73;3.20;;;;;;;;;;5052762;28;20029;-81
2020/12/17 11:41:20;;;;;;;12.00;2.40;;;;;;;;;;5051756;28;20463;-80
2020/12/17 11:43:48;;;;;;;5.50;1.65;;;;;;;;;;5053393;28;20024;-80
2020/12/17 11:46:16;;;;;;;9.65;3.10;;;;;;;;;;5052494;28;20025;-81
2020/12/17 11:48:41;;;;;;;10.35;2.70;;;;;;;;;;5046874;28;20025;-80
2020/12/17 11:51:06;;;;;;;16.17;3.40;;;;;;;;;;5041856;28;20517;-78
2020/12/17 11:53:32;;;;;;;8.52;2.55;;;;;;;;;;5052084;28;20028;-78
2020/12/17 11:55:58;;;;;;;8.52;2.38;;;;;;;;;;5053228;28;20532;-78
2020/12/17 11:58:24;;;;;;;9.55;2.13;;;;;;;;;;5053465;28;20012;-77
2020/12/17 12:00:49;;;;;;;14.85;2.33;;;;;;;;;;5052224;28;20479;-77
2020/12/17 12:03:14;;;;;;;8.50;2.60;;;;;;;;;;5052221;28;20017;-78
2020/12/17 12:05:39;;;;;;;10.40;2.67;;;;;;;;;;5053032;28;20446;-77
2020/12/17 12:08:04;;;;;;;13.80;2.63;;;;;;;;;;5053462;28;20060;-77
2020/12/17 12:10:30;;;;;;;6.10;1.35;;;;;;;;;;5053735;28;20598;-77
2020/12/17 12:12:55;;;;;;;7.20;2.03;;;;;;;;;;5052314;28;20024;-77
2020/12/17 12:15:21;;;;;;;13.10;2.65;;;;;;;;;;5040391;28;20026;-77
2020/12/17 12:17:47;;;;;;;11.30;1.80;;;;;;;;;;5051809;28;20017;-78
2020/12/17 12:20:12;;;;;;;7.70;2.15;;;;;;;;;;5050883;28;20392;-78
2020/12/17 12:22:37;;;;;;;6.32;2.15;;;;;;;;;;5048333;28;20017;-77
2020/12/17 12:25:03;;;;;;;3.30;1.30;;;;;;;;;;5046709;28;20249;-78
2020/12/17 12:27:28;;;;;;;12.52;2.55;;;;;;;;;;5051491;28;20032;-78
2020/12/17 12:29:54;;;;;;;9.90;2.00;;;;;;;;;;5048103;28;20017;-78
2020/12/17 12:32:19;;;;;;;3.38;0.98;;;;;;;;;;5043611;28;20028;-77
2020/12/17 12:34:44;;;;;;;4.85;1.23;;;;;;;;;;5044939;28;20024;-77
2020/12/17 12:37:09;;;;;;;11.70;2.00;;;;;;;;;;5051135;28;20507;-78
2020/12/17 12:39:35;;;;;;;5.97;1.33;;;;;;;;;;5052373;28;20460;-78
2020/12/17 12:42:00;;;;;;;8.10;1.80;;;;;;;;;;5050434;28;20502;-77
2020/12/17 12:44:25;;;;;;;9.23;2.25;;;;;;;;;;5050671;28;20017;-77
2020/12/17 12:46:50;;;;;;;10.75;1.80;;;;;;;;;;5052250;28;20146;-78
2020/12/17 12:49:16;;;;;;;12.20;2.03;;;;;;;;;;5051107;28;20025;-78
2020/12/17 12:51:41;;;;;;;5.03;1.80;;;;;;;;;;5052435;28;20351;-78
2020/12/17 12:54:06;;;;;;;11.63;2.85;;;;;;;;;;5052170;28;20051;-78
2020/12/17 12:56:32;;;;;;;8.00;1.33;;;;;;;;;;5050553;28;20025;-78
2020/12/17 12:58:57;;;;;;;8.18;1.48;;;;;;;;;;5050514;28;20486;-79
2020/12/17 13:01:22;;;;;;;10.02;2.15;;;;;;;;;;5051241;28;20017;-78
2020/12/17 13:03:47;;;;;;;3.30;0.90;;;;;;;;;;5051051;28;20048;-78
2020/12/17 13:06:16;;;;;;;6.70;1.30;;;;;;;;;;5050570;28;20475;-79
2020/12/17 13:08:41;;;;;;;10.32;1.63;;;;;;;;;;5050399;28;20025;-78
2020/12/17 13:11:14;;;;;;;6.75;1.10;;;;;;;;;;5051909;28;20096;-78
2020/12/17 13:13:39;;;;;;;6.43;1.92;;;;;;;;;;5048581;28;20035;-78
2020/12/17 13:16:04;;;;;;;7.13;1.67;;;;;;;;;;5051995;28;20112;-78
2020/12/17 13:18:29;;;;;;;12.02;1.48;;;;;;;;;;5050117;28;20468;-78
2020/12/17 13:20:54;;;;;;;12.93;2.03;;;;;;;;;;5051193;28;20029;-79
2020/12/17 13:23:19;;;;;;;6.70;1.83;;;;;;;;;;5050520;28;20431;-78
2020/12/17 13:25:44;;;;;;;3.38;0.95;;;;;;;;;;5049964;28;20036;-79
2020/12/17 13:28:12;;;;;;;6.55;1.90;;;;;;;;;;5050172;28;20537;-79
2020/12/17 13:30:37;;;;;;;4.72;1.35;;;;;;;;;;5050457;28;20016;-79
2020/12/17 13:33:02;;;;;;;6.28;1.30;;;;;;;;;;5038782;28;20071;-79
2020/12/17 13:35:27;;;;;;;6.65;1.75;;;;;;;;;;5051389;28;20476;-79
2020/12/17 13:37:53;;;;;;;5.28;1.23;;;;;;;;;;5050754;28;20062;-78
2020/12/17 13:40:18;;;;;;;10.38;1.42;;;;;;;;;;5042433;28;20494;-78
2020/12/17 13:42:43;;;;;;;6.45;1.40;;;;;;;;;;5049666;28;20521;-78
2020/12/17 13:45:08;;;;;;;6.80;1.30;;;;;;;;;;5050002;28;20020;-79
2020/12/17 13:47:33;;;;;;;7.55;1.48;;;;;;;;;;5050266;28;20025;-78
2020/12/17 13:49:59;;;;;;;9.27;1.42;;;;;;;;;;5051150;28;20052;-78
2020/12/17 13:52:24;;;;;;;10.55;1.75;;;;;;;;;;5049925;28;20029;-78
2020/12/17 13:54:49;;;;;;;12.30;1.90;;;;;;;;;;5049544;28;20490;-78
2020/12/17 13:57:14;;;;;;;5.32;1.30;;;;;;;;;;5051501;28;20005;-78
2020/12/17 13:59:39;;;;;;;6.55;1.02;;;;;;;;;;5050429;28;20024;-78
2020/12/17 14:02:05;;;;;;;7.63;0.95;;;;;;;;;;5049667;28;20010;-78
2020/12/17 14:04:30;;;;;;;8.32;1.80;;;;;;;;;;5049266;28;20094;-79
2020/12/17 14:06:59;;;;;;;9.30;1.75;;;;;;;;;;5046127;28;20056;-78
2020/12/17 14:09:24;;;;;;;5.00;1.70;;;;;;;;;;5044425;28;20021;-78
2020/12/17 14:11:53;;;;;;;21.67;7.65;;;;;;;;;;5048958;28;20063;-79
2020/12/17 14:14:18;;;;;;;10.05;2.15;;;;;;;;;;5048354;28;20028;-78
2020/12/17 14:16:43;;;;;;;15.27;2.65;;;;;;;;;;5051915;28;20426;-78
2020/12/17 14:19:08;;;;;;;12.07;3.33;;;;;;;;;;5052196;28;20063;-78
2020/12/17 14:21:34;;;;;;;8.10;1.80;;;;;;;;;;5051037;28;20021;-78
2020/12/17 14:23:59;;;;;;;13.60;2.00;;;;;;;;;;5052249;28;20029;-77
2020/12/17 14:26:27;;;;;;;10.85;2.10;;;;;;;;;;5051651;28;20021;-78
2020/12/17 14:28:53;;;;;;;5.88;1.80;;;;;;;;;;5050423;28;20390;-78
2020/12/17 14:31:23;;;;;;;7.22;1.63;;;;;;;;;;5051951;28;20021;-79
2020/12/17 14:33:48;;;;;;;8.50;2.35;;;;;;;;;;5052079;28;20044;-78
2020/12/17 14:36:13;;;;;;;8.55;2.33;;;;;;;;;;5053303;28;20611;-78